Time;durP1;ratioP1;P1;durP2;ratioP2;P2;SDS_P1;SDS_P2;PMS_P1;PMS_P2;Temp;Humidity;BMP_temperature;BMP_pressure;BME280_temperature;BME280_humidity;BME280_pressure;Samples;Min_cycle;Max_cycle;Signal;HPM_P1;HPM_P2
2022/01/21 00:00:58;;;;;;;10.75;1.45;;;2.70;99.90;;;;;;5079727;28;20055;-59
2022/01/21 00:03:24;;;;;;;10.80;1.60;;;2.90;99.90;;;;;;5045506;28;20041;-59
2022/01/21 00:05:50;;;;;;;11.13;1.70;;;2.50;99.90;;;;;;5079912;28;20033;-58
2022/01/21 00:08:15;;;;;;;6.85;1.58;;;2.50;99.90;;;;;;5061729;28;20037;-58
2022/01/21 00:10:41;;;;;;;12.25;1.67;;;2.40;99.90;;;;;;5079564;28;20047;-59
2022/01/21 00:13:22;;;;;;;9.35;1.98;;;2.40;99.90;;;;;;5076683;28;20052;-59
2022/01/21 00:15:48;;;;;;;11.85;1.80;;;2.40;99.90;;;;;;5082191;28;20509;-59
2022/01/21 00:18:14;;;;;;;9.18;1.52;;;2.30;99.90;;;;;;5099719;28;20040;-59
2022/01/21 00:31:37;;;;;;;12.48;2.55;;;2.50;99.90;;;;;;5063735;28;20059;-59
2022/01/21 00:34:03;;;;;;;24.73;4.28;;;2.50;99.90;;;;;;5049880;28;20064;-59
2022/01/21 00:36:29;;;;;;;13.02;1.73;;;2.50;99.90;;;;;;5079064;28;20047;-59
2022/01/21 00:38:56;;;;;;;42.03;3.60;;;2.40;99.90;;;;;;5076864;28;20061;-60
2022/01/21 00:41:26;;;;;;;9.45;2.80;;;2.40;99.90;;;;;;5061462;28;20094;-59
2022/01/21 00:43:51;;;;;;;9.48;1.80;;;2.40;99.90;;;;;;5079041;28;20087;-60
2022/01/21 00:46:19;;;;;;;9.70;2.00;;;2.40;99.90;;;;;;5061847;28;20478;-60
2022/01/21 00:48:45;;;;;;;8.50;1.23;;;2.40;99.90;;;;;;5079062;28;20045;-59
2022/01/21 00:51:10;;;;;;;8.38;1.42;;;2.40;99.90;;;;;;5077601;28;20590;-59
2022/01/21 00:53:36;;;;;;;8.45;1.00;;;2.40;99.90;;;;;;5079118;28;20032;-59
2022/01/21 00:56:02;;;;;;;7.80;1.35;;;2.40;99.90;;;;;;5077484;28;20081;-59
2022/01/21 00:58:28;;;;;;;8.80;1.42;;;2.50;99.90;;;;;;5079546;28;20064;-59
2022/01/21 01:00:53;;;;;;;7.22;1.25;;;2.50;99.90;;;;;;5077130;28;20052;-59
2022/01/21 01:03:19;;;;;;;13.02;1.48;;;2.50;99.90;;;;;;5077955;28;20048;-59
2022/01/21 01:05:47;;;;;;;12.13;2.55;;;2.50;99.90;;;;;;5078571;28;20059;-59
2022/01/21 01:08:12;;;;;;;9.48;1.52;;;2.70;99.90;;;;;;5078837;28;20055;-60
2022/01/21 01:11:12;;;;;;;13.77;1.90;;;2.40;99.90;;;;;;5078525;28;20052;-59
2022/01/21 01:21:47;;;;;;;9.75;2.30;;;2.70;99.90;;;;;;5078558;28;20045;-60
2022/01/21 01:29:24;;;;;;;10.27;0.90;;;2.80;99.90;;;;;;5078480;28;20056;-60
2022/01/21 01:31:52;;;;;;;6.53;0.93;;;2.70;99.90;;;;;;5076997;28;20040;-60
2022/01/21 01:34:18;;;;;;;5.20;1.05;;;2.60;99.90;;;;;;5078022;28;20076;-60
2022/01/21 01:36:45;;;;;;;6.60;1.33;;;2.60;99.90;;;;;;5060678;28;20056;-60
2022/01/21 01:39:58;;;;;;;9.23;1.13;;;2.40;99.90;;;;;;5078315;28;20044;-60
2022/01/21 01:50:05;;;;;;;8.77;1.80;;;2.20;99.90;;;;;;5079335;28;20091;-60
2022/01/21 01:52:32;;;;;;;10.88;1.25;;;2.10;99.90;;;;;;5047916;28;20493;-59
2022/01/21 01:54:58;;;;;;;6.15;1.05;;;2.20;99.90;;;;;;5082650;28;20049;-60
2022/01/21 01:57:24;;;;;;;5.40;1.00;;;2.20;99.90;;;;;;5082548;28;20036;-60
2022/01/21 01:59:50;;;;;;;10.00;1.75;;;2.20;99.90;;;;;;5064155;28;20549;-60
2022/01/21 02:02:18;;;;;;;8.30;1.48;;;2.20;99.90;;;;;;5047894;28;20044;-60
2022/01/21 02:04:46;;;;;;;13.10;1.75;;;2.20;99.90;;;;;;5081988;28;20185;-60
2022/01/21 02:07:12;;;;;;;12.07;2.97;;;2.30;99.90;;;;;;5064597;28;20056;-60
2022/01/21 02:09:39;;;;;;;10.23;1.60;;;2.40;99.90;;;;;;5081883;28;20104;-60
2022/01/21 02:12:05;;;;;;;10.60;1.52;;;2.50;99.90;;;;;;5089565;28;20039;-60
2022/01/21 02:14:37;;;;;;;11.50;2.30;;;2.50;99.90;;;;;;5102464;28;20093;-59
2022/01/21 02:21:27;;;;;;;7.68;1.20;;;2.50;99.90;;;;;;5102311;28;20181;-59
2022/01/21 02:22:39;;;;;;;8.23;1.10;;;2.50;99.90;;;;;;5101957;28;20051;-59
2022/01/21 02:25:27;;;;;;;8.20;1.35;;;2.60;99.90;;;;;;5102371;28;20048;-59
2022/01/21 02:27:56;;;;;;;10.30;1.30;;;2.50;99.90;;;;;;5094140;28;20128;-59
2022/01/21 02:30:23;;;;;;;13.82;1.55;;;2.50;99.90;;;;;;5081124;28;20048;-59
2022/01/21 02:32:57;;;;;;;10.20;2.00;;;2.50;99.90;;;;;;5064125;28;20055;-59
2022/01/21 02:35:24;;;;;;;13.90;1.70;;;2.50;99.90;;;;;;5077528;28;20063;-59
2022/01/21 02:37:51;;;;;;;12.48;1.67;;;2.60;99.90;;;;;;5081843;28;20053;-60
2022/01/21 02:40:18;;;;;;;8.18;1.30;;;2.50;99.90;;;;;;5081418;28;20076;-61
2022/01/21 02:42:44;;;;;;;3.10;0.75;;;2.30;99.90;;;;;;5081091;28;20096;-61
2022/01/21 02:45:13;;;;;;;4.40;0.65;;;2.20;99.90;;;;;;5081103;28;20070;-61
2022/01/21 02:47:39;;;;;;;5.35;0.80;;;2.20;99.90;;;;;;5079887;28;20099;-60
2022/01/21 02:50:05;;;;;;;4.85;0.75;;;2.30;99.90;;;;;;5081585;28;20053;-60
2022/01/21 02:52:40;;;;;;;8.25;1.05;;;2.30;99.90;;;;;;5081031;28;20120;-59
2022/01/21 02:55:07;;;;;;;8.48;1.10;;;2.20;99.90;;;;;;5081187;28;20600;-60
2022/01/21 02:57:33;;;;;;;11.40;1.42;;;2.10;99.90;;;;;;5081033;28;20052;-59
2022/01/21 02:59:59;;;;;;;7.13;0.82;;;2.10;99.90;;;;;;5079288;28;20045;-60
2022/01/21 03:02:24;;;;;;;4.53;1.00;;;2.00;99.90;;;;;;5080292;28;20104;-59
2022/01/21 03:05:08;;;;;;;7.10;0.98;;;1.90;99.90;;;;;;5080673;28;20044;-59
2022/01/21 03:07:34;;;;;;;6.90;0.82;;;1.80;99.90;;;;;;5081194;28;20075;-60
2022/01/21 03:10:00;;;;;;;9.38;1.40;;;1.90;99.90;;;;;;5079009;28;20037;-60
2022/01/21 03:12:25;;;;;;;8.88;1.13;;;1.80;99.90;;;;;;5091330;28;20048;-60
2022/01/21 03:14:51;;;;;;;6.10;1.10;;;1.80;99.90;;;;;;5099798;28;20044;-60
2022/01/21 03:17:17;;;;;;;10.32;1.27;;;1.70;99.90;;;;;;5066177;28;20040;-59
2022/01/21 03:19:42;;;;;;;7.13;1.02;;;1.70;99.90;;;;;;5099726;28;20044;-60
2022/01/21 03:22:09;;;;;;;11.35;1.35;;;1.80;99.90;;;;;;5099515;28;20099;-60
2022/01/21 03:24:34;;;;;;;10.45;1.10;;;1.90;99.90;;;;;;5100368;28;20051;-59
2022/01/21 03:27:00;;;;;;;8.10;1.65;;;1.70;99.90;;;;;;5099346;28;20032;-60
2022/01/21 03:29:26;;;;;;;9.30;1.27;;;1.80;99.90;;;;;;5080946;28;20036;-60
2022/01/21 03:31:51;;;;;;;9.95;1.42;;;1.80;99.90;;;;;;5080530;28;20075;-60
2022/01/21 03:34:17;;;;;;;13.70;1.30;;;1.70;99.90;;;;;;5079021;28;20108;-61
2022/01/21 03:36:43;;;;;;;9.18;1.38;;;1.80;99.90;;;;;;5079030;28;20048;-60
2022/01/21 03:39:08;;;;;;;9.07;1.60;;;1.80;99.90;;;;;;5062077;28;20044;-60
2022/01/21 03:41:34;;;;;;;12.38;1.50;;;1.70;99.90;;;;;;5096363;28;20052;-60
2022/01/21 03:44:00;;;;;;;6.72;1.60;;;1.70;99.90;;;;;;5062050;28;20064;-60
2022/01/21 03:46:25;;;;;;;13.80;1.80;;;1.60;99.90;;;;;;5080430;28;20400;-60
2022/01/21 03:48:51;;;;;;;11.52;1.90;;;1.60;99.90;;;;;;5078540;28;20568;-60
2022/01/21 03:51:20;;;;;;;14.65;1.50;;;1.60;99.90;;;;;;5079805;28;20055;-60
2022/01/21 03:53:47;;;;;;;11.25;1.48;;;1.50;99.90;;;;;;5080352;28;20056;-60
2022/01/21 03:56:16;;;;;;;12.80;2.10;;;1.50;99.90;;;;;;5079902;28;20048;-60
2022/01/21 03:58:43;;;;;;;10.52;2.05;;;1.60;99.90;;;;;;5062590;28;20041;-60
2022/01/21 04:01:09;;;;;;;13.82;1.52;;;1.70;99.90;;;;;;5079406;28;20047;-60
2022/01/21 04:03:35;;;;;;;9.13;1.88;;;1.70;99.90;;;;;;5079977;28;20043;-60
2022/01/21 04:06:01;;;;;;;11.07;1.95;;;1.80;99.90;;;;;;5078289;28;20044;-60
2022/01/21 04:08:27;;;;;;;16.88;3.25;;;2.00;99.90;;;;;;5078353;28;20045;-59
2022/01/21 04:10:52;;;;;;;15.98;2.13;;;2.00;99.90;;;;;;5079931;28;20062;-60
2022/01/21 04:13:20;;;;;;;14.38;2.85;;;2.10;99.90;;;;;;5097418;28;20194;-60
2022/01/21 04:15:51;;;;;;;11.00;2.20;;;2.10;99.90;;;;;;5100443;28;20092;-59
2022/01/21 04:18:17;;;;;;;11.82;2.15;;;2.00;99.90;;;;;;5099358;28;20056;-59
2022/01/21 04:20:45;;;;;;;17.08;1.95;;;2.00;99.90;;;;;;5099587;28;20052;-60
2022/01/21 04:23:11;;;;;;;33.08;5.78;;;2.10;99.90;;;;;;5099571;28;20050;-59
2022/01/21 04:25:38;;;;;;;10.45;1.50;;;2.00;99.90;;;;;;5098208;28;20103;-59
2022/01/21 04:28:04;;;;;;;13.05;1.55;;;2.10;99.90;;;;;;5090972;28;20028;-60
2022/01/21 04:30:30;;;;;;;10.07;1.10;;;2.20;99.90;;;;;;5079213;28;20056;-59
2022/01/21 04:32:56;;;;;;;8.10;0.93;;;2.10;99.90;;;;;;5079643;28;20045;-59
2022/01/21 04:35:22;;;;;;;4.10;0.80;;;2.10;99.90;;;;;;5077334;28;20594;-60
2022/01/21 04:38:01;;;;;;;7.63;1.45;;;2.00;99.90;;;;;;5079428;28;20048;-60
2022/01/21 04:40:31;;;;;;;5.45;1.05;;;2.20;99.90;;;;;;5079048;28;20052;-59
2022/01/21 04:48:27;;;;;;;8.98;1.13;;;2.10;99.90;;;;;;5078716;28;20044;-59
2022/01/21 04:50:58;;;;;;;5.40;1.08;;;2.00;99.90;;;;;;5078945;28;20052;-59
2022/01/21 04:53:26;;;;;;;5.47;1.10;;;2.10;99.90;;;;;;5077557;28;20047;-59
2022/01/21 04:55:53;;;;;;;8.75;1.27;;;1.90;99.90;;;;;;5078726;28;20118;-59
2022/01/21 04:58:19;;;;;;;5.43;1.00;;;2.10;99.90;;;;;;5079253;28;20044;-59
2022/01/21 05:00:46;;;;;;;9.30;1.40;;;2.00;99.90;;;;;;5077114;28;20100;-59
2022/01/21 05:03:12;;;;;;;10.57;2.47;;;2.10;99.90;;;;;;5079363;28;20049;-59
2022/01/21 05:05:39;;;;;;;9.40;1.77;;;2.20;99.90;;;;;;5078542;28;20048;-59
2022/01/21 05:08:09;;;;;;;10.45;1.83;;;2.20;99.90;;;;;;5077813;28;20052;-59
2022/01/21 05:10:36;;;;;;;11.43;1.80;;;2.80;99.90;;;;;;5078684;28;20142;-59
2022/01/21 05:13:03;;;;;;;13.90;2.22;;;2.20;99.90;;;;;;5077147;28;20051;-59
2022/01/21 05:18:30;;;;;;;13.48;2.75;;;2.20;99.90;;;;;;5035519;28;20049;-59
2022/01/21 05:20:56;;;;;;;7.90;1.30;;;2.20;99.90;;;;;;5064235;28;20055;-59
2022/01/21 05:23:23;;;;;;;12.07;1.75;;;2.30;99.90;;;;;;5078694;28;20049;-59
2022/01/21 05:25:49;;;;;;;9.90;1.60;;;2.20;99.90;;;;;;5076639;28;20056;-59
2022/01/21 05:28:15;;;;;;;10.18;1.75;;;2.20;99.90;;;;;;5078754;28;20114;-59
2022/01/21 05:30:41;;;;;;;11.10;1.27;;;2.10;99.90;;;;;;5077060;28;20032;-59
2022/01/21 05:33:07;;;;;;;10.48;1.63;;;2.10;99.90;;;;;;5079078;28;20102;-59
2022/01/21 05:35:32;;;;;;;10.35;1.90;;;2.10;99.90;;;;;;5077877;28;20091;-59
2022/01/21 05:37:58;;;;;;;10.57;1.27;;;2.10;99.90;;;;;;5060393;28;20055;-59
2022/01/21 05:40:25;;;;;;;10.68;1.90;;;2.10;99.90;;;;;;5078215;28;20075;-59
2022/01/21 05:42:51;;;;;;;8.55;1.77;;;2.20;99.90;;;;;;5078252;28;20056;-59
2022/01/21 05:48:01;;;;;;;8.77;1.55;;;2.20;99.90;;;;;;5062894;28;20095;-59
2022/01/21 05:50:27;;;;;;;12.30;1.48;;;2.40;99.90;;;;;;5078462;28;20036;-59
2022/01/21 05:52:55;;;;;;;8.23;1.33;;;2.50;99.90;;;;;;5078245;28;20070;-59
2022/01/21 05:55:20;;;;;;;9.45;1.40;;;2.70;99.90;;;;;;5078085;28;20049;-59
2022/01/21 05:57:46;;;;;;;6.78;1.55;;;2.60;99.90;;;;;;5078212;28;20039;-57
2022/01/21 06:00:12;;;;;;;8.85;1.40;;;2.70;99.90;;;;;;5077970;28;20045;-58
2022/01/21 06:02:38;;;;;;;14.10;1.60;;;2.70;99.90;;;;;;5060390;28;20052;-58
2022/01/21 06:05:05;;;;;;;9.27;2.20;;;2.60;99.90;;;;;;5077757;28;20059;-60
2022/01/21 06:07:31;;;;;;;12.80;2.53;;;2.50;99.90;;;;;;5060655;28;20040;-59
2022/01/21 06:09:57;;;;;;;9.02;1.40;;;2.60;99.90;;;;;;5077990;28;20120;-59
2022/01/21 06:12:23;;;;;;;12.65;1.90;;;2.60;99.90;;;;;;5082755;28;20093;-59
2022/01/21 06:14:49;;;;;;;12.43;2.20;;;2.50;99.90;;;;;;5094923;28;20510;-59
2022/01/21 06:17:15;;;;;;;11.05;2.22;;;2.60;99.90;;;;;;5076791;28;20088;-59
2022/01/21 06:19:41;;;;;;;12.55;1.70;;;2.60;99.90;;;;;;5095119;28;20063;-58
2022/01/21 06:22:07;;;;;;;12.43;2.25;;;2.90;99.90;;;;;;5094459;28;20074;-59
2022/01/21 06:24:33;;;;;;;10.60;1.42;;;2.40;99.90;;;;;;5060901;28;20055;-59
2022/01/21 06:27:03;;;;;;;16.35;2.45;;;2.30;99.90;;;;;;5094698;28;20213;-59
2022/01/21 06:29:29;;;;;;;9.43;2.05;;;2.30;99.90;;;;;;5036635;28;20110;-59
2022/01/21 06:31:55;;;;;;;10.18;1.40;;;2.20;99.90;;;;;;5036306;28;20048;-59
2022/01/21 06:34:21;;;;;;;12.65;2.10;;;2.10;99.90;;;;;;5053933;28;20095;-60
2022/01/21 06:36:47;;;;;;;13.45;1.80;;;2.10;99.90;;;;;;5056456;28;20079;-58
2022/01/21 06:39:13;;;;;;;14.75;2.33;;;2.10;99.90;;;;;;5057815;28;20045;-60
2022/01/21 06:41:40;;;;;;;13.15;1.80;;;2.10;99.90;;;;;;5040494;28;20148;-60
2022/01/21 06:44:07;;;;;;;16.67;2.22;;;2.10;99.90;;;;;;5057847;28;20075;-59
2022/01/21 06:46:33;;;;;;;10.52;1.92;;;2.00;99.90;;;;;;5057781;28;20099;-59
2022/01/21 06:48:59;;;;;;;10.77;1.55;;;2.10;99.90;;;;;;5058009;28;20092;-59
2022/01/21 06:51:24;;;;;;;13.40;1.90;;;2.00;99.90;;;;;;5057753;28;20510;-59
2022/01/21 06:53:50;;;;;;;11.57;1.95;;;2.00;99.90;;;;;;5055940;28;20043;-59
2022/01/21 06:56:16;;;;;;;12.48;2.28;;;2.10;99.90;;;;;;5031419;28;20047;-59
2022/01/21 06:58:41;;;;;;;10.30;1.80;;;2.00;99.90;;;;;;5077688;28;20061;-60
2022/01/21 07:01:07;;;;;;;15.52;2.85;;;2.00;99.90;;;;;;5059340;28;20044;-60
2022/01/21 07:03:33;;;;;;;15.38;2.08;;;2.00;99.90;;;;;;5042938;28;20047;-60
2022/01/21 07:05:59;;;;;;;20.08;2.30;;;1.90;99.90;;;;;;5077278;28;20403;-59
2022/01/21 07:08:26;;;;;;;28.85;3.05;;;2.10;99.90;;;;;;5067652;28;20078;-59
2022/01/21 07:10:52;;;;;;;13.85;2.70;;;2.10;99.90;;;;;;5067565;28;20039;-59
2022/01/21 07:13:17;;;;;;;16.35;2.20;;;2.20;99.90;;;;;;5071524;28;20049;-59
2022/01/21 07:15:43;;;;;;;14.10;2.28;;;2.40;99.90;;;;;;5077701;28;20521;-60
2022/01/21 07:18:09;;;;;;;16.80;2.50;;;2.50;99.90;;;;;;5076561;28;20048;-59
2022/01/21 07:20:35;;;;;;;16.25;4.72;;;2.60;99.90;;;;;;5077077;28;20036;-59
2022/01/21 07:23:00;;;;;;;23.65;4.40;;;2.80;99.90;;;;;;5076668;28;20044;-58
2022/01/21 07:25:27;;;;;;;16.05;4.13;;;2.80;99.90;;;;;;5076858;28;20076;-59
2022/01/21 07:27:53;;;;;;;17.00;2.30;;;2.90;99.90;;;;;;5059157;28;20092;-59
2022/01/21 07:30:19;;;;;;;14.60;1.95;;;3.00;99.90;;;;;;5076546;28;20076;-59
2022/01/21 07:32:44;;;;;;;15.07;2.13;;;3.00;99.90;;;;;;5059658;28;20525;-60
2022/01/21 07:35:11;;;;;;;14.52;1.73;;;2.90;99.90;;;;;;5078139;28;20063;-59
2022/01/21 07:37:38;;;;;;;14.38;1.88;;;2.80;99.90;;;;;;5059780;28;20045;-59
2022/01/21 07:40:06;;;;;;;14.40;1.88;;;2.80;99.90;;;;;;5059236;28;20129;-61
2022/01/21 07:42:32;;;;;;;10.27;2.38;;;2.70;99.90;;;;;;5077033;28;20041;-58
2022/01/21 07:44:58;;;;;;;15.65;2.38;;;2.70;99.90;;;;;;5077270;28;20071;-59
2022/01/21 07:47:23;;;;;;;15.20;3.22;;;2.80;99.90;;;;;;5076382;28;20873;-59
2022/01/21 07:49:50;;;;;;;19.13;2.80;;;2.80;99.90;;;;;;5076730;28;20036;-59
2022/01/21 07:52:16;;;;;;;28.20;4.38;;;2.80;99.90;;;;;;5058648;28;20123;-59
2022/01/21 07:54:42;;;;;;;14.48;2.15;;;2.70;99.90;;;;;;5042348;28;20141;-59
2022/01/21 07:57:08;;;;;;;18.42;2.90;;;2.80;99.90;;;;;;5058771;28;20059;-59
2022/01/21 07:59:34;;;;;;;19.40;3.38;;;2.80;99.90;;;;;;5058859;28;21047;-59
2022/01/21 08:02:00;;;;;;;20.23;2.53;;;2.80;99.90;;;;;;5059070;28;20053;-59
2022/01/21 08:04:26;;;;;;;15.63;3.45;;;2.90;99.90;;;;;;5076669;28;20068;-59
2022/01/21 08:06:52;;;;;;;19.73;2.35;;;2.80;99.90;;;;;;5077147;28;20040;-59
2022/01/21 08:09:23;;;;;;;17.60;2.17;;;2.80;99.90;;;;;;5076280;28;20043;-59
2022/01/21 08:11:50;;;;;;;15.57;2.20;;;2.70;99.90;;;;;;5058209;28;20056;-59
2022/01/21 08:14:15;;;;;;;12.27;2.30;;;2.70;99.90;;;;;;5058387;28;20327;-59
2022/01/21 08:16:41;;;;;;;22.10;4.75;;;2.50;99.90;;;;;;5058499;28;20575;-59
2022/01/21 08:19:07;;;;;;;18.73;3.33;;;2.60;99.90;;;;;;5041499;28;20124;-59
2022/01/21 08:21:32;;;;;;;18.90;3.10;;;2.50;99.90;;;;;;5076225;28;20052;-59
2022/01/21 08:23:58;;;;;;;14.70;2.30;;;2.60;99.90;;;;;;5076544;28;20063;-59
2022/01/21 08:26:27;;;;;;;19.35;3.03;;;2.50;99.90;;;;;;5041479;28;20048;-60
2022/01/21 08:28:54;;;;;;;18.95;3.38;;;2.50;99.90;;;;;;5076747;28;20077;-59
2022/01/21 08:31:20;;;;;;;23.33;2.83;;;2.50;99.90;;;;;;5075959;28;20029;-59
2022/01/21 08:33:46;;;;;;;21.05;2.80;;;2.50;99.90;;;;;;5058090;28;20040;-59
2022/01/21 08:36:12;;;;;;;18.58;3.92;;;2.60;99.90;;;;;;5057678;28;20056;-60
2022/01/21 08:38:38;;;;;;;19.80;5.50;;;2.60;99.90;;;;;;5058020;28;20040;-59
2022/01/21 08:41:05;;;;;;;13.70;2.55;;;2.60;99.90;;;;;;5058637;28;20051;-60
2022/01/21 08:43:30;;;;;;;19.92;3.10;;;2.80;99.90;;;;;;5075817;28;20044;-59
2022/01/21 08:45:56;;;;;;;17.67;3.13;;;2.80;99.90;;;;;;5058514;28;20055;-60
2022/01/21 08:48:23;;;;;;;14.13;3.08;;;2.80;99.90;;;;;;5075093;28;20098;-59
2022/01/21 08:50:49;;;;;;;17.17;2.83;;;2.80;99.90;;;;;;5058107;28;20053;-59
2022/01/21 08:55:59;;;;;;;21.42;3.60;;;2.80;99.90;;;;;;5075579;28;20056;-59
2022/01/21 08:58:26;;;;;;;15.15;4.35;;;2.90;99.90;;;;;;5075637;28;20045;-60
2022/01/21 09:00:52;;;;;;;15.75;3.20;;;2.80;99.90;;;;;;5056686;28;20162;-59
2022/01/21 09:03:18;;;;;;;15.52;2.55;;;2.80;99.90;;;;;;5075833;28;20648;-59
2022/01/21 09:05:48;;;;;;;21.42;3.88;;;2.80;99.90;;;;;;5057614;28;20059;-59
2022/01/21 09:08:15;;;;;;;34.67;4.65;;;2.90;99.90;;;;;;5057397;28;20055;-59
2022/01/21 09:10:41;;;;;;;20.75;3.28;;;2.80;99.90;;;;;;5075342;28;20033;-59
2022/01/21 09:13:07;;;;;;;21.85;3.60;;;2.80;99.90;;;;;;5075296;28;20723;-60
2022/01/21 09:15:34;;;;;;;22.38;3.67;;;2.90;99.90;;;;;;5058244;28;20102;-60
2022/01/21 09:18:04;;;;;;;21.13;2.80;;;2.90;99.90;;;;;;5075003;28;20518;-60
2022/01/21 09:20:34;;;;;;;17.58;4.10;;;3.10;99.90;;;;;;5057481;28;20048;-60
2022/01/21 09:23:00;;;;;;;15.73;2.55;;;3.10;99.90;;;;;;5074987;28;20037;-60
2022/01/21 09:25:26;;;;;;;22.15;2.80;;;3.20;99.90;;;;;;5075321;28;20072;-60
2022/01/21 09:27:52;;;;;;;24.73;3.63;;;3.30;99.90;;;;;;5075373;28;20101;-60
2022/01/21 09:30:18;;;;;;;19.75;3.78;;;3.30;99.90;;;;;;5040723;28;20076;-60
2022/01/21 09:32:44;;;;;;;16.40;2.40;;;3.40;99.90;;;;;;5075628;28;20033;-60
2022/01/21 09:35:10;;;;;;;20.55;3.35;;;3.50;99.90;;;;;;5074098;28;20059;-59
2022/01/21 09:37:36;;;;;;;17.40;3.35;;;3.80;99.90;;;;;;5075244;28;20597;-61
2022/01/21 09:40:05;;;;;;;13.85;2.70;;;3.90;99.90;;;;;;5057170;28;20041;-62
2022/01/21 09:42:35;;;;;;;15.02;2.33;;;3.90;99.90;;;;;;5075354;28;20078;-61
2022/01/21 09:45:07;;;;;;;14.88;2.05;;;4.00;99.90;;;;;;5075622;28;20040;-62
2022/01/21 09:47:44;;;;;;;8.50;1.75;;;4.10;99.90;;;;;;5077709;28;20047;-61
2022/01/21 09:50:10;;;;;;;15.32;2.10;;;4.20;99.90;;;;;;5043670;28;20044;-62
2022/01/21 09:52:37;;;;;;;17.60;2.70;;;4.30;99.90;;;;;;5059703;28;20509;-61
2022/01/21 09:55:04;;;;;;;14.13;2.78;;;4.40;99.90;;;;;;5060332;28;20116;-62
2022/01/21 09:57:31;;;;;;;14.02;1.92;;;4.40;99.90;;;;;;5077604;28;20049;-61
2022/01/21 09:59:58;;;;;;;15.98;2.25;;;4.30;99.90;;;;;;5060041;28;20047;-61
2022/01/21 10:02:29;;;;;;;21.92;2.95;;;4.40;99.90;;;;;;5060396;28;20054;-61
2022/01/21 10:04:57;;;;;;;16.88;3.38;;;4.40;99.90;;;;;;5077615;28;20056;-61
2022/01/21 10:07:24;;;;;;;18.67;2.83;;;4.40;99.90;;;;;;5078533;28;20047;-62
2022/01/21 10:09:51;;;;;;;24.23;2.50;;;4.40;99.90;;;;;;5077978;28;20043;-61
2022/01/21 10:12:17;;;;;;;18.33;3.08;;;4.30;99.90;;;;;;5080598;28;20037;-62
2022/01/21 10:14:43;;;;;;;21.40;2.90;;;4.50;99.90;;;;;;5063908;28;20037;-61
2022/01/21 10:17:10;;;;;;;18.00;3.38;;;4.50;99.90;;;;;;5030898;28;20044;-61
2022/01/21 10:19:43;;;;;;;18.38;4.50;;;4.60;99.90;;;;;;5063397;28;20040;-62
2022/01/21 10:22:17;;;;;;;19.83;2.60;;;4.70;99.90;;;;;;5071150;28;20053;-61
2022/01/21 10:24:54;;;;;;;20.65;2.80;;;4.80;99.90;;;;;;5064779;28;20051;-62
2022/01/21 10:27:41;;;;;;;21.13;2.72;;;5.40;99.90;;;;;;5046141;28;20083;-61
2022/01/21 10:30:24;;;;;;;19.30;3.13;;;5.10;99.90;;;;;;5081728;28;20051;-61
2022/01/21 10:32:51;;;;;;;20.90;2.60;;;5.40;99.90;;;;;;5081995;28;20079;-62
2022/01/21 10:35:33;;;;;;;20.42;3.45;;;5.40;99.90;;;;;;5064213;28;20044;-61
2022/01/21 10:38:22;;;;;;;23.77;2.78;;;5.70;99.90;;;;;;5081263;28;20530;-62
2022/01/21 10:40:48;;;;;;;23.58;4.20;;;5.70;99.90;;;;;;5081544;28;20078;-62
2022/01/21 10:43:17;;;;;;;18.25;3.47;;;5.80;99.90;;;;;;5080016;28;20033;-63
2022/01/21 10:45:56;;;;;;;12.05;2.22;;;5.80;99.90;;;;;;5081903;28;20064;-62
2022/01/21 10:48:22;;;;;;;18.15;2.55;;;6.00;99.90;;;;;;5080713;28;20150;-63
2022/01/21 10:51:23;;;;;;;18.95;2.03;;;5.90;99.90;;;;;;5080643;28;20044;-62
2022/01/21 10:53:48;;;;;;;15.75;2.20;;;5.80;99.90;;;;;;5081683;28;20063;-62
2022/01/21 10:56:17;;;;;;;14.32;2.25;;;5.90;99.90;;;;;;5096389;28;20075;-62
2022/01/21 10:58:52;;;;;;;15.05;3.15;;;5.90;99.90;;;;;;5081867;28;20045;-61
2022/01/21 11:01:22;;;;;;;19.65;2.22;;;6.00;99.90;;;;;;5079759;28;20124;-62
2022/01/21 11:04:04;;;;;;;15.68;2.40;;;6.00;99.90;;;;;;5080722;28;20040;-62
2022/01/21 11:06:47;;;;;;;13.75;2.30;;;6.00;99.90;;;;;;5081041;28;20059;-62
2022/01/21 11:09:25;;;;;;;11.90;2.28;;;6.10;99.90;;;;;;5079083;28;20048;-62
2022/01/21 11:12:09;;;;;;;15.38;3.10;;;6.00;99.90;;;;;;5079652;28;20053;-62
2022/01/21 11:14:36;;;;;;;14.82;2.25;;;6.20;99.90;;;;;;5080957;28;20048;-62
2022/01/21 11:17:20;;;;;;;15.15;2.25;;;6.20;99.90;;;;;;5080496;28;20052;-61
2022/01/21 11:20:16;;;;;;;17.42;3.28;;;6.20;99.90;;;;;;5080983;28;20168;-61
2022/01/21 11:22:57;;;;;;;11.32;2.35;;;6.30;99.90;;;;;;5078175;28;20047;-61
2022/01/21 11:25:54;;;;;;;18.25;2.42;;;6.30;99.90;;;;;;5080213;28;20048;-62
2022/01/21 11:28:22;;;;;;;9.55;2.20;;;6.30;99.90;;;;;;5062381;28;20060;-61
2022/01/21 11:30:49;;;;;;;12.35;2.47;;;6.40;99.90;;;;;;5080431;28;20055;-61
2022/01/21 11:33:15;;;;;;;17.58;2.67;;;6.50;99.90;;;;;;5080811;28;20161;-62
2022/01/21 11:35:41;;;;;;;16.23;2.00;;;6.40;99.90;;;;;;5078423;28;20056;-61
2022/01/21 11:38:09;;;;;;;15.68;2.50;;;6.40;99.90;;;;;;5078621;28;20054;-62
2022/01/21 11:40:36;;;;;;;9.60;2.15;;;6.50;99.90;;;;;;5070370;28;20474;-62
2022/01/21 11:43:04;;;;;;;11.90;2.03;;;6.50;99.90;;;;;;5069081;28;20092;-61
2022/01/21 11:50:57;;;;;;;17.55;2.15;;;6.70;99.90;;;;;;5045728;28;20059;-62
2022/01/21 11:53:45;;;;;;;7.93;1.85;;;6.70;99.90;;;;;;5078849;28;20041;-62
2022/01/21 11:56:30;;;;;;;13.43;2.63;;;6.60;99.90;;;;;;5078007;28;20561;-62
2022/01/21 11:59:07;;;;;;;11.95;2.10;;;6.60;99.90;;;;;;5080417;28;20047;-61
2022/01/21 12:05:03;;;;;;;11.65;2.75;;;6.60;99.90;;;;;;5079712;28;20096;-62
2022/01/21 12:07:55;;;;;;;9.45;1.63;;;6.50;99.90;;;;;;5001232;28;20049;-62
2022/01/21 12:10:25;;;;;;;9.45;1.83;;;6.60;99.90;;;;;;5017143;28;20077;-62
2022/01/21 12:13:02;;;;;;;13.50;2.60;;;6.80;99.90;;;;;;5069245;28;20059;-61
2022/01/21 12:18:16;;;;;;;11.68;2.45;;;6.70;99.90;;;;;;5099755;28;20044;-62
2022/01/21 12:20:42;;;;;;;18.83;2.33;;;6.70;99.90;;;;;;5100048;28;20452;-62
2022/01/21 12:23:14;;;;;;;19.23;3.15;;;6.60;99.90;;;;;;5098662;28;20044;-62
2022/01/21 12:26:12;;;;;;;16.08;2.22;;;6.60;99.90;;;;;;5099794;28;20063;-61
2022/01/21 12:28:42;;;;;;;10.63;2.17;;;6.60;99.90;;;;;;5086532;28;20049;-62
2022/01/21 12:31:10;;;;;;;11.38;2.30;;;6.50;99.90;;;;;;5079176;28;20050;-62
2022/01/21 12:34:07;;;;;;;18.08;2.78;;;6.50;99.90;;;;;;5078083;28;20048;-62
2022/01/21 12:36:49;;;;;;;13.70;2.50;;;6.60;99.90;;;;;;5061385;28;20052;-62
2022/01/21 12:39:41;;;;;;;12.40;2.28;;;6.50;99.90;;;;;;5078928;28;20068;-62
2022/01/21 12:42:25;;;;;;;13.43;1.90;;;6.40;99.90;;;;;;5079296;28;20045;-61
2022/01/21 12:45:17;;;;;;;14.77;2.55;;;6.40;99.90;;;;;;5079116;28;20048;-61
2022/01/21 12:47:44;;;;;;;;;;;6.50;99.90;;;;;;5079225;28;20051;-62
2022/01/21 12:50:31;;;;;;;16.85;2.83;;;6.50;99.90;;;;;;5078043;28;19921;-61
2022/01/21 12:58:17;;;;;;;14.25;2.33;;;6.40;99.90;;;;;;5079440;28;19920;-62
2022/01/21 13:00:43;;;;;;;18.08;2.50;;;6.40;99.90;;;;;;5078653;28;20040;-61
2022/01/21 13:03:15;;;;;;;15.00;3.00;;;6.40;99.90;;;;;;5079241;28;20052;-62
2022/01/21 13:05:55;;;;;;;16.23;2.13;;;6.40;99.90;;;;;;5078791;28;20133;-62
2022/01/21 13:08:27;;;;;;;14.00;3.25;;;6.40;99.90;;;;;;5078781;28;20041;-62
2022/01/21 13:10:53;;;;;;;22.58;3.47;;;6.30;99.90;;;;;;5079324;28;20079;-61
2022/01/21 13:14:01;;;;;;;15.05;2.30;;;6.30;99.90;;;;;;5095253;28;20484;-62
2022/01/21 13:16:08;;;;;;;16.15;2.60;;;6.40;99.90;;;;;;5093207;28;20048;-62
2022/01/21 13:18:36;;;;;;;13.57;2.97;;;6.40;99.90;;;;;;5098701;28;20036;-62
2022/01/21 13:21:06;;;;;;;18.58;4.07;;;6.40;99.90;;;;;;5098466;28;20095;-62
2022/01/21 13:24:15;;;;;;;21.55;3.00;;;6.30;99.90;;;;;;5098867;28;20083;-62
2022/01/21 13:26:31;;;;;;;14.85;2.53;;;6.40;99.90;;;;;;5094333;28;20056;-62
2022/01/21 13:29:02;;;;;;;18.60;4.13;;;6.40;99.90;;;;;;5081383;28;20048;-62
2022/01/21 13:31:32;;;;;;;15.60;2.30;;;6.40;99.90;;;;;;5078625;28;20052;-62
2022/01/21 13:34:08;;;;;;;22.75;3.03;;;6.40;99.90;;;;;;5076979;28;20079;-62
2022/01/21 13:36:46;;;;;;;16.40;4.18;;;6.40;99.90;;;;;;5078538;28;20134;-62
2022/01/21 13:39:19;;;;;;;13.15;2.45;;;6.40;99.90;;;;;;5074099;28;20139;-64
2022/01/21 13:42:07;;;;;;;13.85;2.17;;;6.40;99.90;;;;;;5071902;28;20049;-63
2022/01/21 13:44:55;;;;;;;19.20;3.45;;;6.40;99.90;;;;;;5076231;28;20396;-64
2022/01/21 13:47:41;;;;;;;16.90;2.08;;;6.40;99.90;;;;;;5079868;28;20068;-64
2022/01/21 13:50:23;;;;;;;16.35;2.28;;;6.50;99.90;;;;;;5044631;28;20053;-63
2022/01/21 13:53:03;;;;;;;14.63;2.25;;;6.40;99.90;;;;;;5059382;28;20044;-63
2022/01/21 13:55:30;;;;;;;23.05;3.67;;;6.40;99.90;;;;;;5079479;28;20055;-63
2022/01/21 13:57:58;;;;;;;15.02;2.92;;;6.50;99.90;;;;;;5082672;28;20044;-62
2022/01/21 14:00:33;;;;;;;13.00;2.70;;;6.50;99.90;;;;;;5081867;28;20618;-64
2022/01/21 14:03:06;;;;;;;23.65;5.20;;;6.50;99.90;;;;;;5082624;28;20087;-63
2022/01/21 14:06:19;;;;;;;22.85;2.90;;;6.50;99.90;;;;;;5063996;28;20044;-63
2022/01/21 14:08:49;;;;;;;18.73;2.88;;;6.50;99.90;;;;;;5073097;28;20052;-63